sensor_id;sensor_type;location;lat;lon;timestamp;pressure;altitude;pressure_sealevel;temperature
77789;BMP280;70537;44.384;0.512;2023-10-08T00:01:49;101990.53;;;10.35
77789;BMP280;70537;44.384;0.512;2023-10-08T00:04:16;101988.44;;;10.39
77789;BMP280;70537;44.384;0.512;2023-10-08T00:06:44;101988.44;;;10.39
77789;BMP280;70537;44.384;0.512;2023-10-08T00:09:10;101995.22;;;10.35
77789;BMP280;70537;44.384;0.512;2023-10-08T00:11:37;101999.91;;;10.34
77789;BMP280;70537;44.384;0.512;2023-10-08T00:14:04;102003.78;;;10.33
77789;BMP280;70537;44.384;0.512;2023-10-08T00:16:42;101993.66;;;10.24
77789;BMP280;70537;44.384;0.512;2023-10-08T00:19:08;101993.31;;;10.22
77789;BMP280;70537;44.384;0.512;2023-10-08T00:21:34;102008.53;;;10.20
77789;BMP280;70537;44.384;0.512;2023-10-08T00:24:01;102000.84;;;10.18
77789;BMP280;70537;44.384;0.512;2023-10-08T00:26:31;101995.09;;;10.16
77789;BMP280;70537;44.384;0.512;2023-10-08T00:28:58;101998.44;;;10.20
77789;BMP280;70537;44.384;0.512;2023-10-08T00:31:25;102000.41;;;10.20
77789;BMP280;70537;44.384;0.512;2023-10-08T00:33:57;101994.47;;;10.12
77789;BMP280;70537;44.384;0.512;2023-10-08T00:36:23;102000.81;;;10.09
77789;BMP280;70537;44.384;0.512;2023-10-08T00:38:50;102008.50;;;10.11
77789;BMP280;70537;44.384;0.512;2023-10-08T00:41:24;102002.16;;;10.14
77789;BMP280;70537;44.384;0.512;2023-10-08T00:43:53;102001.59;;;10.19
77789;BMP280;70537;44.384;0.512;2023-10-08T00:46:21;102001.59;;;10.19
77789;BMP280;70537;44.384;0.512;2023-10-08T00:48:53;101996.94;;;10.19
77789;BMP280;70537;44.384;0.512;2023-10-08T00:51:27;101996.94;;;10.19
77789;BMP280;70537;44.384;0.512;2023-10-08T00:54:00;101992.91;;;10.24
77789;BMP280;70537;44.384;0.512;2023-10-08T00:56:36;101990.94;;;10.24
77789;BMP280;70537;44.384;0.512;2023-10-08T00:59:20;101986.72;;;10.23
77789;BMP280;70537;44.384;0.512;2023-10-08T01:01:48;101986.56;;;10.27
77789;BMP280;70537;44.384;0.512;2023-10-08T01:04:21;101984.88;;;10.20
77789;BMP280;70537;44.384;0.512;2023-10-08T01:06:57;101985.31;;;10.19
77789;BMP280;70537;44.384;0.512;2023-10-08T01:09:29;101973.41;;;10.16
77789;BMP280;70537;44.384;0.512;2023-10-08T01:12:14;101971.13;;;10.15
77789;BMP280;70537;44.384;0.512;2023-10-08T01:14:55;101984.38;;;10.13
77789;BMP280;70537;44.384;0.512;2023-10-08T01:17:30;101977.88;;;10.10
77789;BMP280;70537;44.384;0.512;2023-10-08T01:19:57;101975.78;;;10.14
77789;BMP280;70537;44.384;0.512;2023-10-08T01:22:34;101965.81;;;10.11
77789;BMP280;70537;44.384;0.512;2023-10-08T01:24:59;101975.03;;;10.14
77789;BMP280;70537;44.384;0.512;2023-10-08T01:27:29;101978.50;;;10.14
77789;BMP280;70537;44.384;0.512;2023-10-08T01:30:00;101970.38;;;10.14
77789;BMP280;70537;44.384;0.512;2023-10-08T01:32:37;101972.00;;;10.12
77789;BMP280;70537;44.384;0.512;2023-10-08T01:35:03;101971.97;;;10.02
77789;BMP280;70537;44.384;0.512;2023-10-08T01:37:33;101973.13;;;10.01
77789;BMP280;70537;44.384;0.512;2023-10-08T01:39:59;101962.44;;;9.98
77789;BMP280;70537;44.384;0.512;2023-10-08T01:42:26;101975.38;;;9.94
77789;BMP280;70537;44.384;0.512;2023-10-08T01:44:54;101975.69;;;9.96
77789;BMP280;70537;44.384;0.512;2023-10-08T01:47:21;101969.06;;;9.97
77789;BMP280;70537;44.384;0.512;2023-10-08T01:49:50;101976.78;;;9.98
77789;BMP280;70537;44.384;0.512;2023-10-08T01:52:22;101983.84;;;9.96
77789;BMP280;70537;44.384;0.512;2023-10-08T01:54:49;101973.97;;;9.89
77789;BMP280;70537;44.384;0.512;2023-10-08T01:57:15;101969.66;;;9.92
77789;BMP280;70537;44.384;0.512;2023-10-08T01:59:42;101971.78;;;9.97
77789;BMP280;70537;44.384;0.512;2023-10-08T02:02:09;101963.63;;;9.97
77789;BMP280;70537;44.384;0.512;2023-10-08T02:04:35;101962.56;;;9.94
77789;BMP280;70537;44.384;0.512;2023-10-08T02:07:02;101967.22;;;9.94
77789;BMP280;70537;44.384;0.512;2023-10-08T02:09:29;101975.19;;;9.88
77789;BMP280;70537;44.384;0.512;2023-10-08T02:11:55;101965.50;;;9.87
77789;BMP280;70537;44.384;0.512;2023-10-08T02:14:21;101964.59;;;9.81
77789;BMP280;70537;44.384;0.512;2023-10-08T02:16:48;101975.22;;;9.75
77789;BMP280;70537;44.384;0.512;2023-10-08T02:19:14;101964.38;;;9.75
77789;BMP280;70537;44.384;0.512;2023-10-08T02:21:44;101971.91;;;9.71
77789;BMP280;70537;44.384;0.512;2023-10-08T02:24:13;101967.91;;;9.63
77789;BMP280;70537;44.384;0.512;2023-10-08T02:26:39;101970.03;;;9.68
77789;BMP280;70537;44.384;0.512;2023-10-08T02:29:05;101971.47;;;9.73
77789;BMP280;70537;44.384;0.512;2023-10-08T02:31:42;101978.63;;;9.67
77789;BMP280;70537;44.384;0.512;2023-10-08T02:34:09;101968.34;;;9.62
77789;BMP280;70537;44.384;0.512;2023-10-08T02:36:38;101969.22;;;9.58
77789;BMP280;70537;44.384;0.512;2023-10-08T02:39:06;101967.19;;;9.50
77789;BMP280;70537;44.384;0.512;2023-10-08T02:41:41;101966.16;;;9.47
77789;BMP280;70537;44.384;0.512;2023-10-08T02:44:08;101966.59;;;9.46
77789;BMP280;70537;44.384;0.512;2023-10-08T02:46:42;101963.75;;;9.49
77789;BMP280;70537;44.384;0.512;2023-10-08T02:49:11;101974.13;;;9.51
77789;BMP280;70537;44.384;0.512;2023-10-08T02:51:40;101978.81;;;9.50
77789;BMP280;70537;44.384;0.512;2023-10-08T02:54:09;101964.91;;;9.48
77789;BMP280;70537;44.384;0.512;2023-10-08T02:56:47;101968.28;;;9.52
77789;BMP280;70537;44.384;0.512;2023-10-08T02:59:14;101970.25;;;9.52
77789;BMP280;70537;44.384;0.512;2023-10-08T03:01:40;101961.91;;;9.46
77789;BMP280;70537;44.384;0.512;2023-10-08T03:04:07;101971.09;;;9.49
77789;BMP280;70537;44.384;0.512;2023-10-08T03:06:42;101972.75;;;9.46
77789;BMP280;70537;44.384;0.512;2023-10-08T03:09:08;101976.22;;;9.47
77789;BMP280;70537;44.384;0.512;2023-10-08T03:11:33;101974.13;;;9.51
77789;BMP280;70537;44.384;0.512;2023-10-08T03:14:01;101972.50;;;9.53
77789;BMP280;70537;44.384;0.512;2023-10-08T03:16:26;101972.16;;;9.51
77789;BMP280;70537;44.384;0.512;2023-10-08T03:19:01;101980.94;;;9.55
77789;BMP280;70537;44.384;0.512;2023-10-08T03:21:26;101984.28;;;9.59
77789;BMP280;70537;44.384;0.512;2023-10-08T03:24:04;101981.72;;;9.56
77789;BMP280;70537;44.384;0.512;2023-10-08T03:26:38;101971.50;;;9.60
77789;BMP280;70537;44.384;0.512;2023-10-08T03:29:05;101971.84;;;9.62
77789;BMP280;70537;44.384;0.512;2023-10-08T03:31:41;101967.59;;;9.61
77789;BMP280;70537;44.384;0.512;2023-10-08T03:34:16;101970.31;;;9.61
77789;BMP280;70537;44.384;0.512;2023-10-08T03:36:44;101976.41;;;9.52
77789;BMP280;70537;44.384;0.512;2023-10-08T03:39:13;101984.13;;;9.54
77789;BMP280;70537;44.384;0.512;2023-10-08T03:41:42;101970.78;;;9.47
77789;BMP280;70537;44.384;0.512;2023-10-08T03:44:17;101978.28;;;9.43
77789;BMP280;70537;44.384;0.512;2023-10-08T03:46:43;101972.19;;;9.38
77789;BMP280;70537;44.384;0.512;2023-10-08T03:49:09;101967.25;;;9.37
77789;BMP280;70537;44.384;0.512;2023-10-08T03:51:51;101966.59;;;9.33
77789;BMP280;70537;44.384;0.512;2023-10-08T03:54:18;101964.75;;;9.30
77789;BMP280;70537;44.384;0.512;2023-10-08T03:57:03;101973.78;;;9.27
77789;BMP280;70537;44.384;0.512;2023-10-08T03:59:30;101963.38;;;9.25
77789;BMP280;70537;44.384;0.512;2023-10-08T04:02:03;101976.50;;;9.27
77789;BMP280;70537;44.384;0.512;2023-10-08T04:04:50;101962.28;;;9.23
77789;BMP280;70537;44.384;0.512;2023-10-08T04:07:23;101972.72;;;9.24
77789;BMP280;70537;44.384;0.512;2023-10-08T04:09:59;101966.97;;;9.22
77789;BMP280;70537;44.384;0.512;2023-10-08T04:12:34;101974.31;;;9.22
77789;BMP280;70537;44.384;0.512;2023-10-08T04:15:03;101977.91;;;9.19
77789;BMP280;70537;44.384;0.512;2023-10-08T04:17:33;101975.84;;;9.23
77789;BMP280;70537;44.384;0.512;2023-10-08T04:20:14;101976.50;;;9.27
77789;BMP280;70537;44.384;0.512;2023-10-08T04:23:00;101972.25;;;9.26
77789;BMP280;70537;44.384;0.512;2023-10-08T04:25:26;101972.38;;;9.22
77789;BMP280;70537;44.384;0.512;2023-10-08T04:27:54;101977.91;;;9.19
77789;BMP280;70537;44.384;0.512;2023-10-08T04:30:26;101973.72;;;9.18
77789;BMP280;70537;44.384;0.512;2023-10-08T04:33:05;101978.53;;;9.23
77789;BMP280;70537;44.384;0.512;2023-10-08T04:35:38;101983.22;;;9.22
77789;BMP280;70537;44.384;0.512;2023-10-08T04:38:27;101983.09;;;9.26
77789;BMP280;70537;44.384;0.512;2023-10-08T04:40:54;101981.00;;;9.30
77789;BMP280;70537;44.384;0.512;2023-10-08T04:43:22;101978.44;;;9.26
77789;BMP280;70537;44.384;0.512;2023-10-08T04:46:08;101969.66;;;9.22
77789;BMP280;70537;44.384;0.512;2023-10-08T04:48:54;101980.50;;;9.22
77789;BMP280;70537;44.384;0.512;2023-10-08T04:51:21;101971.41;;;9.16
77789;BMP280;70537;44.384;0.512;2023-10-08T04:53:48;101978.22;;;9.21
77789;BMP280;70537;44.384;0.512;2023-10-08T04:56:14;101979.22;;;9.14
77789;BMP280;70537;44.384;0.512;2023-10-08T04:58:46;101979.09;;;9.05
77789;BMP280;70537;44.384;0.512;2023-10-08T05:01:15;101977.69;;;9.00
77789;BMP280;70537;44.384;0.512;2023-10-08T05:03:54;101983.91;;;9.01
77789;BMP280;70537;44.384;0.512;2023-10-08T05:06:27;101983.09;;;9.00
77789;BMP280;70537;44.384;0.512;2023-10-08T05:09:06;101973.94;;;8.98
77789;BMP280;70537;44.384;0.512;2023-10-08T05:11:44;101970.13;;;8.95
77789;BMP280;70537;44.384;0.512;2023-10-08T05:14:24;101984.53;;;8.92
77789;BMP280;70537;44.384;0.512;2023-10-08T05:17:03;101978.34;;;8.91
77789;BMP280;70537;44.384;0.512;2023-10-08T05:19:37;101982.28;;;8.90
77789;BMP280;70537;44.384;0.512;2023-10-08T05:22:07;101985.31;;;8.92
77789;BMP280;70537;44.384;0.512;2023-10-08T05:24:48;101982.59;;;8.92
77789;BMP280;70537;44.384;0.512;2023-10-08T05:27:34;101988.75;;;9.06
77789;BMP280;70537;44.384;0.512;2023-10-08T05:32:59;101982.59;;;9.05
77789;BMP280;70537;44.384;0.512;2023-10-08T05:35:45;101978.59;;;8.97
77789;BMP280;70537;44.384;0.512;2023-10-08T05:38:18;101982.59;;;8.92
77789;BMP280;70537;44.384;0.512;2023-10-08T05:40:50;101983.03;;;8.91
77789;BMP280;70537;44.384;0.512;2023-10-08T05:43:22;101982.28;;;8.90
77789;BMP280;70537;44.384;0.512;2023-10-08T05:46:12;101985.09;;;8.87
77789;BMP280;70537;44.384;0.512;2023-10-08T05:49:04;101980.56;;;8.84
77789;BMP280;70537;44.384;0.512;2023-10-08T05:51:34;101985.97;;;8.84
77789;BMP280;70537;44.384;0.512;2023-10-08T05:54:13;101989.44;;;8.84
77789;BMP280;70537;44.384;0.512;2023-10-08T05:57:03;101988.22;;;8.85
77789;BMP280;70537;44.384;0.512;2023-10-08T05:59:39;101994.72;;;8.88
77789;BMP280;70537;44.384;0.512;2023-10-08T06:04:59;101991.91;;;8.91
77789;BMP280;70537;44.384;0.512;2023-10-08T06:07:49;101993.09;;;8.90
77789;BMP280;70537;44.384;0.512;2023-10-08T06:10:29;101999.59;;;8.93
77789;BMP280;70537;44.384;0.512;2023-10-08T06:12:59;102000.13;;;8.88
77789;BMP280;70537;44.384;0.512;2023-10-08T06:15:36;102004.81;;;8.87
77789;BMP280;70537;44.384;0.512;2023-10-08T06:18:26;101998.88;;;8.80
77789;BMP280;70537;44.384;0.512;2023-10-08T06:20:56;102004.59;;;8.82
77789;BMP280;70537;44.384;0.512;2023-10-08T06:23:24;102016.06;;;8.86
77789;BMP280;70537;44.384;0.512;2023-10-08T06:25:51;102013.16;;;8.93
77789;BMP280;70537;44.384;0.512;2023-10-08T06:28:25;102014.88;;;9.00
77789;BMP280;70537;44.384;0.512;2023-10-08T06:30:53;102006.66;;;9.03
77789;BMP280;70537;44.384;0.512;2023-10-08T06:33:20;102015.94;;;9.15
77789;BMP280;70537;44.384;0.512;2023-10-08T06:35:51;102017.22;;;9.23
77789;BMP280;70537;44.384;0.512;2023-10-08T06:38:52;102018.84;;;9.33
77789;BMP280;70537;44.384;0.512;2023-10-08T06:41:17;102026.72;;;9.41
77789;BMP280;70537;44.384;0.512;2023-10-08T06:43:48;102022.91;;;9.51
77789;BMP280;70537;44.384;0.512;2023-10-08T06:46:32;102032.56;;;9.65
77789;BMP280;70537;44.384;0.512;2023-10-08T06:48:58;102023.28;;;9.75
77789;BMP280;70537;44.384;0.512;2023-10-08T06:51:24;102034.66;;;9.82
77789;BMP280;70537;44.384;0.512;2023-10-08T06:53:51;102035.59;;;9.89
77789;BMP280;70537;44.384;0.512;2023-10-08T06:56:17;102037.75;;;9.94
77789;BMP280;70537;44.384;0.512;2023-10-08T06:58:44;102041.28;;;10.03
77789;BMP280;70537;44.384;0.512;2023-10-08T07:01:17;102042.00;;;10.17
77789;BMP280;70537;44.384;0.512;2023-10-08T07:03:54;102046.16;;;10.31
77789;BMP280;70537;44.384;0.512;2023-10-08T07:06:29;102051.38;;;10.47
77789;BMP280;70537;44.384;0.512;2023-10-08T07:09:01;102052.97;;;10.66
77789;BMP280;70537;44.384;0.512;2023-10-08T07:11:31;102053.94;;;10.82
77789;BMP280;70537;44.384;0.512;2023-10-08T07:14:02;102051.75;;;10.99
77789;BMP280;70537;44.384;0.512;2023-10-08T07:16:32;102062.81;;;11.13
77789;BMP280;70537;44.384;0.512;2023-10-08T07:18:58;102060.91;;;11.32
77789;BMP280;70537;44.384;0.512;2023-10-08T07:21:28;102064.53;;;11.48
77789;BMP280;70537;44.384;0.512;2023-10-08T07:23:55;102050.22;;;11.56
77789;BMP280;70537;44.384;0.512;2023-10-08T07:26:22;102065.75;;;11.74
77789;BMP280;70537;44.384;0.512;2023-10-08T07:28:52;102066.06;;;11.85
77789;BMP280;70537;44.384;0.512;2023-10-08T07:31:23;102065.72;;;12.02
77789;BMP280;70537;44.384;0.512;2023-10-08T07:33:50;102067.84;;;12.16
77789;BMP280;70537;44.384;0.512;2023-10-08T07:36:25;102066.47;;;12.30
77789;BMP280;70537;44.384;0.512;2023-10-08T07:38:52;102077.19;;;12.43
77789;BMP280;70537;44.384;0.512;2023-10-08T07:41:18;102067.72;;;12.53
77789;BMP280;70537;44.384;0.512;2023-10-08T07:43:49;102075.56;;;12.69
77789;BMP280;70537;44.384;0.512;2023-10-08T07:46:24;102070.63;;;12.92
77789;BMP280;70537;44.384;0.512;2023-10-08T07:48:56;102072.94;;;13.08
77789;BMP280;70537;44.384;0.512;2023-10-08T07:51:23;102069.63;;;13.28
77789;BMP280;70537;44.384;0.512;2023-10-08T07:53:50;102072.03;;;13.50
77789;BMP280;70537;44.384;0.512;2023-10-08T07:56:19;102071.16;;;13.68
77789;BMP280;70537;44.384;0.512;2023-10-08T07:58:45;102076.75;;;13.88
77789;BMP280;70537;44.384;0.512;2023-10-08T08:01:12;102078.22;;;14.04
77789;BMP280;70537;44.384;0.512;2023-10-08T08:03:40;102072.66;;;14.28
77789;BMP280;70537;44.384;0.512;2023-10-08T08:06:08;102087.44;;;14.36
77789;BMP280;70537;44.384;0.512;2023-10-08T08:08:35;102080.63;;;14.61
77789;BMP280;70537;44.384;0.512;2023-10-08T08:11:03;102086.22;;;14.88
77789;BMP280;70537;44.384;0.512;2023-10-08T08:13:34;102087.44;;;15.07
77789;BMP280;70537;44.384;0.512;2023-10-08T08:16:00;102094.16;;;15.26
77789;BMP280;70537;44.384;0.512;2023-10-08T08:18:36;102091.88;;;15.45
77789;BMP280;70537;44.384;0.512;2023-10-08T08:21:02;102094.63;;;15.71
77789;BMP280;70537;44.384;0.512;2023-10-08T08:23:29;102098.03;;;15.92
77789;BMP280;70537;44.384;0.512;2023-10-08T08:25:55;102095.34;;;16.29
77789;BMP280;70537;44.384;0.512;2023-10-08T08:28:32;102085.09;;;16.62
77789;BMP280;70537;44.384;0.512;2023-10-08T08:31:05;102086.88;;;16.70
77789;BMP280;70537;44.384;0.512;2023-10-08T08:33:41;102086.78;;;16.96
77789;BMP280;70537;44.384;0.512;2023-10-08T08:36:23;102086.34;;;17.20
77789;BMP280;70537;44.384;0.512;2023-10-08T08:38:49;102085.88;;;17.44
77789;BMP280;70537;44.384;0.512;2023-10-08T08:41:15;102084.91;;;17.70
77789;BMP280;70537;44.384;0.512;2023-10-08T08:43:48;102072.19;;;17.95
77789;BMP280;70537;44.384;0.512;2023-10-08T08:46:14;102082.66;;;18.13
77789;BMP280;70537;44.384;0.512;2023-10-08T08:48:42;102077.34;;;18.43
77789;BMP280;70537;44.384;0.512;2023-10-08T08:51:08;102073.28;;;18.61
77789;BMP280;70537;44.384;0.512;2023-10-08T08:53:35;102068.66;;;18.92
77789;BMP280;70537;44.384;0.512;2023-10-08T08:56:01;102072.84;;;19.04
77789;BMP280;70537;44.384;0.512;2023-10-08T08:58:33;102075.84;;;19.42
77789;BMP280;70537;44.384;0.512;2023-10-08T09:01:00;102081.06;;;19.76
77789;BMP280;70537;44.384;0.512;2023-10-08T09:03:26;102080.13;;;19.73
77789;BMP280;70537;44.384;0.512;2023-10-08T09:05:59;102080.91;;;19.92
77789;BMP280;70537;44.384;0.512;2023-10-08T09:08:42;102078.09;;;20.23
77789;BMP280;70537;44.384;0.512;2023-10-08T09:11:15;102077.75;;;20.32
77789;BMP280;70537;44.384;0.512;2023-10-08T09:13:40;102086.56;;;20.74
77789;BMP280;70537;44.384;0.512;2023-10-08T09:18:35;102088.03;;;20.93
77789;BMP280;70537;44.384;0.512;2023-10-08T09:21:07;102078.44;;;21.13
77789;BMP280;70537;44.384;0.512;2023-10-08T09:23:42;102087.28;;;21.25
77789;BMP280;70537;44.384;0.512;2023-10-08T09:26:13;102083.97;;;21.45
77789;BMP280;70537;44.384;0.512;2023-10-08T09:28:49;102080.41;;;21.90
77789;BMP280;70537;44.384;0.512;2023-10-08T09:31:15;102079.88;;;22.05
77789;BMP280;70537;44.384;0.512;2023-10-08T09:33:43;102082.97;;;22.28
77789;BMP280;70537;44.384;0.512;2023-10-08T09:36:18;102071.34;;;22.43
77789;BMP280;70537;44.384;0.512;2023-10-08T09:38:45;102073.63;;;22.65
77789;BMP280;70537;44.384;0.512;2023-10-08T09:41:14;102070.88;;;22.86
77789;BMP280;70537;44.384;0.512;2023-10-08T09:43:40;102076.25;;;23.05
77789;BMP280;70537;44.384;0.512;2023-10-08T09:46:18;102074.31;;;23.21
77789;BMP280;70537;44.384;0.512;2023-10-08T09:48:49;102072.03;;;23.61
77789;BMP280;70537;44.384;0.512;2023-10-08T09:51:16;102067.81;;;23.68
77789;BMP280;70537;44.384;0.512;2023-10-08T09:53:51;102073.38;;;24.04
77789;BMP280;70537;44.384;0.512;2023-10-08T09:56:19;102069.78;;;24.40
77789;BMP280;70537;44.384;0.512;2023-10-08T09:58:46;102059.84;;;24.52
77789;BMP280;70537;44.384;0.512;2023-10-08T10:01:15;102065.06;;;24.78
77789;BMP280;70537;44.384;0.512;2023-10-08T10:03:44;102054.13;;;24.96
77789;BMP280;70537;44.384;0.512;2023-10-08T10:06:18;102055.25;;;25.08
77789;BMP280;70537;44.384;0.512;2023-10-08T10:08:44;102057.28;;;25.30
77789;BMP280;70537;44.384;0.512;2023-10-08T10:11:11;102050.78;;;25.43
77789;BMP280;70537;44.384;0.512;2023-10-08T10:13:44;102045.44;;;25.85
77789;BMP280;70537;44.384;0.512;2023-10-08T10:16:13;102047.22;;;25.98
77789;BMP280;70537;44.384;0.512;2023-10-08T10:18:38;102050.19;;;26.33
77789;BMP280;70537;44.384;0.512;2023-10-08T10:23:47;102034.84;;;26.74
77789;BMP280;70537;44.384;0.512;2023-10-08T10:31:50;102031.28;;;27.33
77789;BMP280;70537;44.384;0.512;2023-10-08T10:34:20;102031.97;;;27.41
77789;BMP280;70537;44.384;0.512;2023-10-08T10:36:48;102029.31;;;27.43
77789;BMP280;70537;44.384;0.512;2023-10-08T10:39:16;102031.41;;;27.97
77789;BMP280;70537;44.384;0.512;2023-10-08T10:41:47;102038.69;;;27.83
77789;BMP280;70537;44.384;0.512;2023-10-08T10:44:14;102030.41;;;28.02
77789;BMP280;70537;44.384;0.512;2023-10-08T10:46:46;102029.81;;;28.04
77789;BMP280;70537;44.384;0.512;2023-10-08T10:49:20;102033.16;;;28.29
77789;BMP280;70537;44.384;0.512;2023-10-08T10:52:10;102037.19;;;28.36
77789;BMP280;70537;44.384;0.512;2023-10-08T10:54:43;102033.88;;;28.20
77789;BMP280;70537;44.384;0.512;2023-10-08T10:57:25;102026.94;;;28.58
77789;BMP280;70537;44.384;0.512;2023-10-08T10:59:52;102035.31;;;28.58
77789;BMP280;70537;44.384;0.512;2023-10-08T11:02:21;102039.19;;;28.81
77789;BMP280;70537;44.384;0.512;2023-10-08T11:04:56;102034.06;;;29.07
77789;BMP280;70537;44.384;0.512;2023-10-08T11:07:33;102035.56;;;29.18
77789;BMP280;70537;44.384;0.512;2023-10-08T11:10:00;102029.97;;;29.18
77789;BMP280;70537;44.384;0.512;2023-10-08T11:12:26;102025.06;;;29.47
77789;BMP280;70537;44.384;0.512;2023-10-08T11:15:09;102020.63;;;29.44
77789;BMP280;70537;44.384;0.512;2023-10-08T11:17:41;102018.31;;;29.41
77789;BMP280;70537;44.384;0.512;2023-10-08T11:20:28;102013.13;;;29.27
77789;BMP280;70537;44.384;0.512;2023-10-08T11:22:54;102015.38;;;29.09
77789;BMP280;70537;44.384;0.512;2023-10-08T11:25:24;102010.34;;;29.27
77789;BMP280;70537;44.384;0.512;2023-10-08T11:27:56;102013.47;;;29.82
77789;BMP280;70537;44.384;0.512;2023-10-08T11:30:28;102006.81;;;29.87
77789;BMP280;70537;44.384;0.512;2023-10-08T11:33:00;102003.69;;;29.92
77789;BMP280;70537;44.384;0.512;2023-10-08T11:35:26;101999.16;;;30.18
77789;BMP280;70537;44.384;0.512;2023-10-08T11:37:57;102006.03;;;29.96
77789;BMP280;70537;44.384;0.512;2023-10-08T11:40:24;101987.56;;;30.34
77789;BMP280;70537;44.384;0.512;2023-10-08T11:43:14;101990.50;;;30.14
77789;BMP280;70537;44.384;0.512;2023-10-08T11:45:41;101993.13;;;29.81
77789;BMP280;70537;44.384;0.512;2023-10-08T11:48:13;101987.00;;;29.94
77789;BMP280;70537;44.384;0.512;2023-10-08T11:50:42;101983.19;;;30.21
77789;BMP280;70537;44.384;0.512;2023-10-08T11:53:09;101979.94;;;30.25
77789;BMP280;70537;44.384;0.512;2023-10-08T11:55:37;101979.06;;;30.43
77789;BMP280;70537;44.384;0.512;2023-10-08T11:58:05;101971.84;;;30.62
77789;BMP280;70537;44.384;0.512;2023-10-08T12:00:41;101975.72;;;30.78
77789;BMP280;70537;44.384;0.512;2023-10-08T12:03:10;101957.97;;;30.52
77789;BMP280;70537;44.384;0.512;2023-10-08T12:05:38;101970.78;;;30.67
77789;BMP280;70537;44.384;0.512;2023-10-08T12:08:14;101967.66;;;31.05
77789;BMP280;70537;44.384;0.512;2023-10-08T12:10:45;101960.69;;;31.18
77789;BMP280;70537;44.384;0.512;2023-10-08T12:13:12;101965.50;;;31.39
77789;BMP280;70537;44.384;0.512;2023-10-08T12:15:37;101959.75;;;31.25
77789;BMP280;70537;44.384;0.512;2023-10-08T12:18:09;101958.31;;;31.48
77789;BMP280;70537;44.384;0.512;2023-10-08T12:20:50;101962.69;;;31.51
77789;BMP280;70537;44.384;0.512;2023-10-08T12:23:16;101960.63;;;31.51
77789;BMP280;70537;44.384;0.512;2023-10-08T12:25:53;101952.88;;;31.99
77789;BMP280;70537;44.384;0.512;2023-10-08T12:28:21;101949.59;;;32.02
77789;BMP280;70537;44.384;0.512;2023-10-08T12:30:49;101948.19;;;31.66
77789;BMP280;70537;44.384;0.512;2023-10-08T12:33:21;101947.72;;;31.70
77789;BMP280;70537;44.384;0.512;2023-10-08T12:35:48;101939.50;;;31.74
77789;BMP280;70537;44.384;0.512;2023-10-08T12:38:14;101937.63;;;31.90
77789;BMP280;70537;44.384;0.512;2023-10-08T12:40:42;101930.81;;;31.81
77789;BMP280;70537;44.384;0.512;2023-10-08T12:43:14;101931.28;;;32.01
77789;BMP280;70537;44.384;0.512;2023-10-08T12:45:45;101929.63;;;32.22
77789;BMP280;70537;44.384;0.512;2023-10-08T12:48:26;101924.25;;;32.51
77789;BMP280;70537;44.384;0.512;2023-10-08T12:50:53;101920.25;;;32.42
77789;BMP280;70537;44.384;0.512;2023-10-08T12:53:30;101924.19;;;32.63
77789;BMP280;70537;44.384;0.512;2023-10-08T12:56:00;101916.34;;;32.47
77789;BMP280;70537;44.384;0.512;2023-10-08T12:58:32;101914.50;;;32.15
77789;BMP280;70537;44.384;0.512;2023-10-08T13:01:03;101908.88;;;32.15
77789;BMP280;70537;44.384;0.512;2023-10-08T13:03:29;101901.84;;;32.39
77789;BMP280;70537;44.384;0.512;2023-10-08T13:05:59;101904.44;;;32.35
77789;BMP280;70537;44.384;0.512;2023-10-08T13:08:31;101901.53;;;32.22
77789;BMP280;70537;44.384;0.512;2023-10-08T13:10:58;101900.91;;;32.35
77789;BMP280;70537;44.384;0.512;2023-10-08T13:13:35;101898.78;;;32.61
77789;BMP280;70537;44.384;0.512;2023-10-08T13:16:02;101889.97;;;32.66
77789;BMP280;70537;44.384;0.512;2023-10-08T13:18:36;101887.00;;;32.51
77789;BMP280;70537;44.384;0.512;2023-10-08T13:21:08;101884.91;;;32.51
77789;BMP280;70537;44.384;0.512;2023-10-08T13:23:35;101884.25;;;32.78
77789;BMP280;70537;44.384;0.512;2023-10-08T13:26:01;101882.75;;;32.63
77789;BMP280;70537;44.384;0.512;2023-10-08T13:28:30;101880.09;;;32.79
77789;BMP280;70537;44.384;0.512;2023-10-08T13:30:59;101896.25;;;32.92
77789;BMP280;70537;44.384;0.512;2023-10-08T13:33:25;101882.09;;;32.90
77789;BMP280;70537;44.384;0.512;2023-10-08T13:35:52;101879.03;;;32.86
77789;BMP280;70537;44.384;0.512;2023-10-08T13:38:18;101875.53;;;33.27
77789;BMP280;70537;44.384;0.512;2023-10-08T13:40:51;101874.28;;;32.89
77789;BMP280;70537;44.384;0.512;2023-10-08T13:43:35;101878.34;;;32.86
77789;BMP280;70537;44.384;0.512;2023-10-08T13:46:04;101876.06;;;33.23
77789;BMP280;70537;44.384;0.512;2023-10-08T13:48:32;101872.94;;;33.31
77789;BMP280;70537;44.384;0.512;2023-10-08T13:51:02;101877.97;;;33.46
77789;BMP280;70537;44.384;0.512;2023-10-08T13:53:32;101875.97;;;33.49
77789;BMP280;70537;44.384;0.512;2023-10-08T13:56:01;101871.91;;;33.24
77789;BMP280;70537;44.384;0.512;2023-10-08T13:58:28;101876.50;;;33.18
77789;BMP280;70537;44.384;0.512;2023-10-08T14:00:58;101871.28;;;33.12
77789;BMP280;70537;44.384;0.512;2023-10-08T14:03:27;101868.34;;;33.10
77789;BMP280;70537;44.384;0.512;2023-10-08T14:05:59;101871.47;;;33.44
77789;BMP280;70537;44.384;0.512;2023-10-08T14:08:30;101869.31;;;33.85
77789;BMP280;70537;44.384;0.512;2023-10-08T14:10:57;101856.56;;;33.55
77789;BMP280;70537;44.384;0.512;2023-10-08T14:13:31;101863.38;;;33.36
77789;BMP280;70537;44.384;0.512;2023-10-08T14:15:58;101868.47;;;32.98
77789;BMP280;70537;44.384;0.512;2023-10-08T14:18:25;101865.03;;;33.14
77789;BMP280;70537;44.384;0.512;2023-10-08T14:21:07;101853.44;;;33.35
77789;BMP280;70537;44.384;0.512;2023-10-08T14:23:36;101854.59;;;33.16
77789;BMP280;70537;44.384;0.512;2023-10-08T14:26:07;101851.34;;;32.94
77789;BMP280;70537;44.384;0.512;2023-10-08T14:28:34;101851.06;;;33.02
77789;BMP280;70537;44.384;0.512;2023-10-08T14:31:09;101856.97;;;32.67
77789;BMP280;70537;44.384;0.512;2023-10-08T14:33:41;101851.16;;;32.90
77789;BMP280;70537;44.384;0.512;2023-10-08T14:36:33;101844.59;;;33.13
77789;BMP280;70537;44.384;0.512;2023-10-08T14:39:18;101842.09;;;33.33
77789;BMP280;70537;44.384;0.512;2023-10-08T14:42:02;101847.19;;;32.82